sensor_id;sensor_type;location;lat;lon;timestamp;noise_LAeq;noise_LA_min;noise_LA_max;noise_LA01;noise_LA95
66335;Laerm;53138;51.496;6.410;2023-03-14T00:00:12;33.84;32.12;35.74;;
66335;Laerm;53138;51.496;6.410;2023-03-14T00:00:22;34.42;31.96;45.10;;
66335;Laerm;53138;51.496;6.410;2023-03-14T00:00:33;34.47;32.61;36.88;;
66335;Laerm;53138;51.496;6.410;2023-03-14T00:00:43;34.89;32.36;47.19;;
66335;Laerm;53138;51.496;6.410;2023-03-14T00:00:53;35.93;32.30;50.61;;
66335;Laerm;53138;51.496;6.410;2023-03-14T00:01:07;34.33;31.57;39.88;;
66335;Laerm;53138;51.496;6.410;2023-03-14T00:01:18;35.99;32.45;49.56;;
66335;Laerm;53138;51.496;6.410;2023-03-14T00:01:30;34.83;32.01;39.15;;
66335;Laerm;53138;51.496;6.410;2023-03-14T00:01:40;34.59;32.44;36.95;;
66335;Laerm;53138;51.496;6.410;2023-03-14T00:01:53;35.43;32.31;48.81;;
66335;Laerm;53138;51.496;6.410;2023-03-14T00:02:03;36.11;33.43;46.75;;
66335;Laerm;53138;51.496;6.410;2023-03-14T00:02:13;35.31;33.45;37.13;;
66335;Laerm;53138;51.496;6.410;2023-03-14T00:02:23;35.86;33.19;45.98;;
66335;Laerm;53138;51.496;6.410;2023-03-14T00:02:34;35.15;33.04;41.13;;
66335;Laerm;53138;51.496;6.410;2023-03-14T00:02:44;35.01;32.91;37.80;;
66335;Laerm;53138;51.496;6.410;2023-03-14T00:02:54;37.15;32.71;51.09;;
66335;Laerm;53138;51.496;6.410;2023-03-14T00:03:05;35.61;33.04;39.55;;
66335;Laerm;53138;51.496;6.410;2023-03-14T00:03:15;36.69;33.55;51.93;;
66335;Laerm;53138;51.496;6.410;2023-03-14T00:03:25;35.29;33.51;37.71;;
66335;Laerm;53138;51.496;6.410;2023-03-14T00:03:35;38.82;33.45;56.46;;
66335;Laerm;53138;51.496;6.410;2023-03-14T00:03:46;36.34;33.21;47.52;;
66335;Laerm;53138;51.496;6.410;2023-03-14T00:03:56;36.27;33.79;43.43;;
66335;Laerm;53138;51.496;6.410;2023-03-14T00:04:06;37.46;34.40;49.15;;
66335;Laerm;53138;51.496;6.410;2023-03-14T00:04:17;39.93;34.59;56.96;;
66335;Laerm;53138;51.496;6.410;2023-03-14T00:04:27;36.89;33.36;50.31;;
66335;Laerm;53138;51.496;6.410;2023-03-14T00:04:37;34.92;32.65;39.08;;
66335;Laerm;53138;51.496;6.410;2023-03-14T00:04:47;35.80;32.65;46.49;;
66335;Laerm;53138;51.496;6.410;2023-03-14T00:04:57;36.60;34.16;45.46;;
66335;Laerm;53138;51.496;6.410;2023-03-14T00:05:08;35.33;33.33;37.18;;
66335;Laerm;53138;51.496;6.410;2023-03-14T00:05:19;39.00;33.76;55.52;;
66335;Laerm;53138;51.496;6.410;2023-03-14T00:05:29;39.41;35.04;57.03;;
66335;Laerm;53138;51.496;6.410;2023-03-14T00:05:39;39.01;36.55;45.19;;
66335;Laerm;53138;51.496;6.410;2023-03-14T00:05:49;38.95;36.12;52.93;;
66335;Laerm;53138;51.496;6.410;2023-03-14T00:06:03;40.40;36.31;53.77;;
66335;Laerm;53138;51.496;6.410;2023-03-14T00:06:13;40.22;33.85;55.66;;
66335;Laerm;53138;51.496;6.410;2023-03-14T00:06:24;39.80;35.48;56.48;;
66335;Laerm;53138;51.496;6.410;2023-03-14T00:06:35;39.54;34.78;53.95;;
66335;Laerm;53138;51.496;6.410;2023-03-14T00:06:45;40.66;35.36;52.06;;
66335;Laerm;53138;51.496;6.410;2023-03-14T00:06:56;39.75;35.00;52.86;;
66335;Laerm;53138;51.496;6.410;2023-03-14T00:07:07;37.21;33.22;47.17;;
66335;Laerm;53138;51.496;6.410;2023-03-14T00:07:17;35.63;33.21;42.41;;
66335;Laerm;53138;51.496;6.410;2023-03-14T00:07:27;37.56;33.09;54.42;;
66335;Laerm;53138;51.496;6.410;2023-03-14T00:07:41;40.05;34.43;58.36;;
66335;Laerm;53138;51.496;6.410;2023-03-14T00:07:52;39.20;36.01;42.62;;
66335;Laerm;53138;51.496;6.410;2023-03-14T00:08:02;38.17;35.75;42.42;;
66335;Laerm;53138;51.496;6.410;2023-03-14T00:08:12;38.48;35.92;46.34;;
66335;Laerm;53138;51.496;6.410;2023-03-14T00:08:22;40.24;37.26;46.58;;
66335;Laerm;53138;51.496;6.410;2023-03-14T00:08:34;39.34;35.98;52.42;;
66335;Laerm;53138;51.496;6.410;2023-03-14T00:08:45;42.11;37.34;58.28;;
66335;Laerm;53138;51.496;6.410;2023-03-14T00:08:55;46.73;40.40;58.45;;
66335;Laerm;53138;51.496;6.410;2023-03-14T00:09:06;46.16;39.80;63.44;;
66335;Laerm;53138;51.496;6.410;2023-03-14T00:09:16;44.17;39.24;55.52;;
66335;Laerm;53138;51.496;6.410;2023-03-14T00:09:27;44.88;37.97;60.39;;
66335;Laerm;53138;51.496;6.410;2023-03-14T00:09:37;40.28;38.03;46.09;;
66335;Laerm;53138;51.496;6.410;2023-03-14T00:09:47;46.09;37.37;63.70;;
66335;Laerm;53138;51.496;6.410;2023-03-14T00:09:57;37.47;34.88;45.91;;
66335;Laerm;53138;51.496;6.410;2023-03-14T00:10:09;37.33;34.69;51.26;;
66335;Laerm;53138;51.496;6.410;2023-03-14T00:10:19;36.93;34.49;43.99;;
66335;Laerm;53138;51.496;6.410;2023-03-14T00:10:30;36.70;34.19;47.73;;
66335;Laerm;53138;51.496;6.410;2023-03-14T00:10:40;38.96;33.32;55.29;;
66335;Laerm;53138;51.496;6.410;2023-03-14T00:10:50;36.76;33.88;48.43;;
66335;Laerm;53138;51.496;6.410;2023-03-14T00:11:04;37.40;33.83;50.75;;
66335;Laerm;53138;51.496;6.410;2023-03-14T00:11:16;36.18;32.85;48.39;;
66335;Laerm;53138;51.496;6.410;2023-03-14T00:11:27;36.13;33.53;45.59;;
66335;Laerm;53138;51.496;6.410;2023-03-14T00:11:37;41.71;35.28;59.08;;
66335;Laerm;53138;51.496;6.410;2023-03-14T00:11:47;41.39;34.44;59.19;;
66335;Laerm;53138;51.496;6.410;2023-03-14T00:11:57;36.38;33.67;46.33;;
66335;Laerm;53138;51.496;6.410;2023-03-14T00:12:08;36.14;34.13;40.52;;
66335;Laerm;53138;51.496;6.410;2023-03-14T00:12:18;37.72;33.93;46.23;;
66335;Laerm;53138;51.496;6.410;2023-03-14T00:12:28;40.61;36.92;52.68;;
66335;Laerm;53138;51.496;6.410;2023-03-14T00:12:39;47.26;39.15;64.68;;
66335;Laerm;53138;51.496;6.410;2023-03-14T00:12:49;42.15;35.22;62.29;;
66335;Laerm;53138;51.496;6.410;2023-03-14T00:12:59;38.25;35.00;44.60;;
66335;Laerm;53138;51.496;6.410;2023-03-14T00:13:09;41.64;33.79;59.00;;
66335;Laerm;53138;51.496;6.410;2023-03-14T00:13:20;38.58;34.06;49.89;;
66335;Laerm;53138;51.496;6.410;2023-03-14T00:13:30;37.41;35.03;42.36;;
66335;Laerm;53138;51.496;6.410;2023-03-14T00:13:40;44.08;34.88;63.14;;
66335;Laerm;53138;51.496;6.410;2023-03-14T00:13:51;39.07;36.28;46.80;;
66335;Laerm;53138;51.496;6.410;2023-03-14T00:14:01;41.48;36.61;48.63;;
66335;Laerm;53138;51.496;6.410;2023-03-14T00:14:12;47.16;41.45;53.53;;
66335;Laerm;53138;51.496;6.410;2023-03-14T00:14:25;49.37;43.66;54.29;;
66335;Laerm;53138;51.496;6.410;2023-03-14T00:14:35;49.02;43.92;52.86;;
66335;Laerm;53138;51.496;6.410;2023-03-14T00:14:45;45.77;42.43;50.01;;
66335;Laerm;53138;51.496;6.410;2023-03-14T00:14:55;45.18;42.60;52.29;;
66335;Laerm;53138;51.496;6.410;2023-03-14T00:15:06;45.69;42.17;51.82;;
66335;Laerm;53138;51.496;6.410;2023-03-14T00:15:17;48.09;44.11;62.80;;
66335;Laerm;53138;51.496;6.410;2023-03-14T00:15:27;48.14;44.64;52.05;;
66335;Laerm;53138;51.496;6.410;2023-03-14T00:15:37;48.72;44.63;53.68;;
66335;Laerm;53138;51.496;6.410;2023-03-14T00:15:47;54.09;49.78;56.93;;
66335;Laerm;53138;51.496;6.410;2023-03-14T00:16:07;52.46;48.86;55.27;;
66335;Laerm;53138;51.496;6.410;2023-03-14T00:16:19;51.97;48.11;55.83;;
66335;Laerm;53138;51.496;6.410;2023-03-14T00:16:29;50.47;46.26;58.51;;
66335;Laerm;53138;51.496;6.410;2023-03-14T00:16:39;48.39;44.44;61.28;;
66335;Laerm;53138;51.496;6.410;2023-03-14T00:16:49;46.48;42.92;51.54;;
66335;Laerm;53138;51.496;6.410;2023-03-14T00:17:00;43.96;39.49;55.37;;
66335;Laerm;53138;51.496;6.410;2023-03-14T00:17:10;45.34;41.82;52.59;;
66335;Laerm;53138;51.496;6.410;2023-03-14T00:17:20;47.74;41.14;61.83;;
66335;Laerm;53138;51.496;6.410;2023-03-14T00:17:30;49.65;42.70;61.90;;
66335;Laerm;53138;51.496;6.410;2023-03-14T00:17:42;46.24;40.54;59.34;;
66335;Laerm;53138;51.496;6.410;2023-03-14T00:17:52;46.95;36.54;66.88;;
66335;Laerm;53138;51.496;6.410;2023-03-14T00:18:03;39.04;35.81;48.58;;
66335;Laerm;53138;51.496;6.410;2023-03-14T00:18:13;38.53;34.16;54.93;;
66335;Laerm;53138;51.496;6.410;2023-03-14T00:18:23;38.22;34.69;50.56;;
66335;Laerm;53138;51.496;6.410;2023-03-14T00:18:34;36.90;34.71;43.13;;
66335;Laerm;53138;51.496;6.410;2023-03-14T00:18:44;40.75;35.23;55.37;;
66335;Laerm;53138;51.496;6.410;2023-03-14T00:18:54;44.01;35.14;61.66;;
66335;Laerm;53138;51.496;6.410;2023-03-14T00:19:04;40.33;36.66;44.99;;
66335;Laerm;53138;51.496;6.410;2023-03-14T00:19:15;39.82;36.05;48.35;;
66335;Laerm;53138;51.496;6.410;2023-03-14T00:19:25;39.63;34.90;55.53;;
66335;Laerm;53138;51.496;6.410;2023-03-14T00:19:35;39.84;35.36;55.05;;
66335;Laerm;53138;51.496;6.410;2023-03-14T00:19:45;39.28;34.91;50.19;;
66335;Laerm;53138;51.496;6.410;2023-03-14T00:19:55;45.41;35.00;64.08;;
66335;Laerm;53138;51.496;6.410;2023-03-14T00:20:06;37.62;35.02;47.41;;
66335;Laerm;53138;51.496;6.410;2023-03-14T00:20:21;39.37;34.26;57.89;;
66335;Laerm;53138;51.496;6.410;2023-03-14T00:20:31;38.24;34.71;53.08;;
66335;Laerm;53138;51.496;6.410;2023-03-14T00:20:41;41.19;34.94;57.14;;
66335;Laerm;53138;51.496;6.410;2023-03-14T00:20:51;41.07;36.40;56.26;;
66335;Laerm;53138;51.496;6.410;2023-03-14T00:21:01;39.79;35.59;52.67;;
66335;Laerm;53138;51.496;6.410;2023-03-14T00:21:12;41.50;34.26;60.58;;
66335;Laerm;53138;51.496;6.410;2023-03-14T00:21:22;37.61;35.19;46.56;;
66335;Laerm;53138;51.496;6.410;2023-03-14T00:21:33;38.57;35.25;51.36;;
66335;Laerm;53138;51.496;6.410;2023-03-14T00:21:43;38.50;33.79;51.70;;
66335;Laerm;53138;51.496;6.410;2023-03-14T00:21:53;37.78;34.51;47.90;;
66335;Laerm;53138;51.496;6.410;2023-03-14T00:22:03;40.80;36.69;56.64;;
66335;Laerm;53138;51.496;6.410;2023-03-14T00:22:13;46.49;36.28;63.05;;
66335;Laerm;53138;51.496;6.410;2023-03-14T00:22:24;38.00;35.21;46.86;;
66335;Laerm;53138;51.496;6.410;2023-03-14T00:22:34;41.58;34.29;57.25;;
66335;Laerm;53138;51.496;6.410;2023-03-14T00:22:45;37.47;33.84;51.64;;
66335;Laerm;53138;51.496;6.410;2023-03-14T00:22:55;38.24;34.62;50.81;;
66335;Laerm;53138;51.496;6.410;2023-03-14T00:23:05;40.98;34.03;58.43;;
66335;Laerm;53138;51.496;6.410;2023-03-14T00:23:15;39.24;34.45;54.24;;
66335;Laerm;53138;51.496;6.410;2023-03-14T00:23:26;37.21;34.74;46.95;;
66335;Laerm;53138;51.496;6.410;2023-03-14T00:23:38;38.34;35.38;49.45;;
66335;Laerm;53138;51.496;6.410;2023-03-14T00:23:48;38.88;34.99;52.81;;
66335;Laerm;53138;51.496;6.410;2023-03-14T00:23:58;41.24;34.96;57.52;;
66335;Laerm;53138;51.496;6.410;2023-03-14T00:24:09;38.85;35.40;53.28;;
66335;Laerm;53138;51.496;6.410;2023-03-14T00:24:19;38.55;34.81;50.38;;
66335;Laerm;53138;51.496;6.410;2023-03-14T00:24:29;40.88;35.48;56.33;;
66335;Laerm;53138;51.496;6.410;2023-03-14T00:24:39;41.19;35.60;57.21;;
66335;Laerm;53138;51.496;6.410;2023-03-14T00:24:50;37.92;35.81;40.97;;
66335;Laerm;53138;51.496;6.410;2023-03-14T00:25:00;44.31;37.99;52.41;;
66335;Laerm;53138;51.496;6.410;2023-03-14T00:25:11;43.81;39.24;54.12;;
66335;Laerm;53138;51.496;6.410;2023-03-14T00:25:21;40.03;37.17;52.41;;
66335;Laerm;53138;51.496;6.410;2023-03-14T00:25:31;43.21;36.88;59.40;;
66335;Laerm;53138;51.496;6.410;2023-03-14T00:25:42;42.60;37.66;58.04;;
66335;Laerm;53138;51.496;6.410;2023-03-14T00:25:52;45.60;37.87;63.35;;
66335;Laerm;53138;51.496;6.410;2023-03-14T00:26:03;44.43;38.65;58.68;;
66335;Laerm;53138;51.496;6.410;2023-03-14T00:26:15;46.86;40.05;65.05;;
66335;Laerm;53138;51.496;6.410;2023-03-14T00:26:26;48.08;41.21;62.22;;
66335;Laerm;53138;51.496;6.410;2023-03-14T00:26:36;45.60;36.65;59.24;;
66335;Laerm;53138;51.496;6.410;2023-03-14T00:26:46;41.22;36.81;55.47;;
66335;Laerm;53138;51.496;6.410;2023-03-14T00:26:56;42.20;38.00;52.07;;
66335;Laerm;53138;51.496;6.410;2023-03-14T00:27:07;41.27;37.61;51.13;;
66335;Laerm;53138;51.496;6.410;2023-03-14T00:27:17;40.43;36.28;54.54;;
66335;Laerm;53138;51.496;6.410;2023-03-14T00:27:27;42.03;35.47;56.66;;
66335;Laerm;53138;51.496;6.410;2023-03-14T00:27:37;40.48;34.92;57.06;;
66335;Laerm;53138;51.496;6.410;2023-03-14T00:27:49;42.39;34.49;60.73;;
66335;Laerm;53138;51.496;6.410;2023-03-14T00:28:00;39.94;34.53;58.52;;
66335;Laerm;53138;51.496;6.410;2023-03-14T00:28:10;38.05;35.54;40.59;;
66335;Laerm;53138;51.496;6.410;2023-03-14T00:28:20;40.20;37.07;49.93;;
66335;Laerm;53138;51.496;6.410;2023-03-14T00:28:30;42.18;38.63;55.63;;
66335;Laerm;53138;51.496;6.410;2023-03-14T00:28:41;41.93;37.96;52.40;;
66335;Laerm;53138;51.496;6.410;2023-03-14T00:28:52;43.59;35.77;61.03;;
66335;Laerm;53138;51.496;6.410;2023-03-14T00:29:03;38.79;34.11;51.60;;
66335;Laerm;53138;51.496;6.410;2023-03-14T00:29:13;41.07;35.95;56.54;;
66335;Laerm;53138;51.496;6.410;2023-03-14T00:29:23;39.61;34.59;54.74;;
66335;Laerm;53138;51.496;6.410;2023-03-14T00:29:33;37.08;34.90;41.88;;
66335;Laerm;53138;51.496;6.410;2023-03-14T00:29:44;41.76;34.40;57.59;;
66335;Laerm;53138;51.496;6.410;2023-03-14T00:29:54;37.61;35.67;44.84;;
66335;Laerm;53138;51.496;6.410;2023-03-14T00:30:05;37.01;34.43;48.76;;
66335;Laerm;53138;51.496;6.410;2023-03-14T00:30:17;38.87;34.74;54.02;;
66335;Laerm;53138;51.496;6.410;2023-03-14T00:30:27;42.05;35.55;60.47;;
66335;Laerm;53138;51.496;6.410;2023-03-14T00:30:38;36.96;34.48;47.84;;
66335;Laerm;53138;51.496;6.410;2023-03-14T00:30:48;38.88;34.37;54.89;;
66335;Laerm;53138;51.496;6.410;2023-03-14T00:30:58;44.22;35.09;62.36;;
66335;Laerm;53138;51.496;6.410;2023-03-14T00:31:09;37.45;35.33;42.44;;
66335;Laerm;53138;51.496;6.410;2023-03-14T00:31:19;38.96;34.79;50.88;;
66335;Laerm;53138;51.496;6.410;2023-03-14T00:31:30;39.12;35.86;48.86;;
66335;Laerm;53138;51.496;6.410;2023-03-14T00:31:40;39.68;34.57;55.11;;
66335;Laerm;53138;51.496;6.410;2023-03-14T00:31:50;39.40;36.13;54.82;;
66335;Laerm;53138;51.496;6.410;2023-03-14T00:32:00;43.80;35.88;60.22;;
66335;Laerm;53138;51.496;6.410;2023-03-14T00:32:11;43.16;38.35;52.26;;
66335;Laerm;53138;51.496;6.410;2023-03-14T00:32:21;41.41;35.76;54.90;;
66335;Laerm;53138;51.496;6.410;2023-03-14T00:32:31;38.07;34.17;53.75;;
66335;Laerm;53138;51.496;6.410;2023-03-14T00:32:41;38.62;35.11;49.92;;
66335;Laerm;53138;51.496;6.410;2023-03-14T00:32:52;37.83;35.29;50.42;;
66335;Laerm;53138;51.496;6.410;2023-03-14T00:33:02;37.97;34.23;53.40;;
66335;Laerm;53138;51.496;6.410;2023-03-14T00:33:12;38.85;34.84;51.81;;
66335;Laerm;53138;51.496;6.410;2023-03-14T00:33:23;38.17;36.10;40.04;;
66335;Laerm;53138;51.496;6.410;2023-03-14T00:33:33;39.35;35.84;51.99;;
66335;Laerm;53138;51.496;6.410;2023-03-14T00:33:44;41.02;34.65;60.31;;
66335;Laerm;53138;51.496;6.410;2023-03-14T00:33:54;37.18;34.93;44.60;;
66335;Laerm;53138;51.496;6.410;2023-03-14T00:34:05;40.64;34.34;57.78;;
66335;Laerm;53138;51.496;6.410;2023-03-14T00:34:15;40.13;34.15;58.04;;
66335;Laerm;53138;51.496;6.410;2023-03-14T00:34:28;39.54;35.15;52.17;;
66335;Laerm;53138;51.496;6.410;2023-03-14T00:34:38;39.76;36.27;50.06;;
66335;Laerm;53138;51.496;6.410;2023-03-14T00:34:49;41.07;37.04;57.66;;
66335;Laerm;53138;51.496;6.410;2023-03-14T00:34:59;38.92;35.47;49.28;;
66335;Laerm;53138;51.496;6.410;2023-03-14T00:35:10;38.75;34.96;52.02;;
66335;Laerm;53138;51.496;6.410;2023-03-14T00:35:20;39.17;35.59;53.93;;
66335;Laerm;53138;51.496;6.410;2023-03-14T00:35:31;41.62;36.13;54.65;;
66335;Laerm;53138;51.496;6.410;2023-03-14T00:35:41;41.18;37.65;53.52;;
66335;Laerm;53138;51.496;6.410;2023-03-14T00:35:52;39.67;35.81;48.36;;
66335;Laerm;53138;51.496;6.410;2023-03-14T00:36:03;40.13;36.14;53.10;;
66335;Laerm;53138;51.496;6.410;2023-03-14T00:36:15;38.80;36.06;46.87;;
66335;Laerm;53138;51.496;6.410;2023-03-14T00:36:26;42.03;35.12;59.18;;
66335;Laerm;53138;51.496;6.410;2023-03-14T00:36:37;36.57;33.85;47.10;;
66335;Laerm;53138;51.496;6.410;2023-03-14T00:36:47;37.20;35.23;41.23;;
66335;Laerm;53138;51.496;6.410;2023-03-14T00:36:57;38.48;35.74;48.80;;
66335;Laerm;53138;51.496;6.410;2023-03-14T00:37:08;38.28;36.09;45.56;;
66335;Laerm;53138;51.496;6.410;2023-03-14T00:37:18;38.09;36.29;42.38;;
66335;Laerm;53138;51.496;6.410;2023-03-14T00:37:28;40.30;36.95;51.19;;
66335;Laerm;53138;51.496;6.410;2023-03-14T00:37:38;39.78;36.25;56.12;;
66335;Laerm;53138;51.496;6.410;2023-03-14T00:37:49;38.39;34.53;49.45;;
66335;Laerm;53138;51.496;6.410;2023-03-14T00:37:59;36.42;34.48;39.52;;
66335;Laerm;53138;51.496;6.410;2023-03-14T00:38:09;36.40;34.05;40.47;;
66335;Laerm;53138;51.496;6.410;2023-03-14T00:38:19;37.23;34.00;46.70;;
66335;Laerm;53138;51.496;6.410;2023-03-14T00:38:30;38.21;34.10;52.60;;
66335;Laerm;53138;51.496;6.410;2023-03-14T00:38:41;43.18;35.56;61.25;;
66335;Laerm;53138;51.496;6.410;2023-03-14T00:38:51;41.27;35.91;54.90;;
66335;Laerm;53138;51.496;6.410;2023-03-14T00:39:01;37.78;34.97;46.61;;
66335;Laerm;53138;51.496;6.410;2023-03-14T00:39:12;38.88;34.30;53.61;;
66335;Laerm;53138;51.496;6.410;2023-03-14T00:39:22;36.48;34.38;43.94;;
66335;Laerm;53138;51.496;6.410;2023-03-14T00:39:32;37.15;35.27;43.90;;
66335;Laerm;53138;51.496;6.410;2023-03-14T00:39:43;41.18;35.28;61.89;;
66335;Laerm;53138;51.496;6.410;2023-03-14T00:39:53;37.92;35.18;50.73;;
66335;Laerm;53138;51.496;6.410;2023-03-14T00:40:03;40.24;34.11;58.46;;
66335;Laerm;53138;51.496;6.410;2023-03-14T00:40:16;36.55;34.23;40.97;;
66335;Laerm;53138;51.496;6.410;2023-03-14T00:40:26;37.32;35.35;41.05;;
66335;Laerm;53138;51.496;6.410;2023-03-14T00:40:38;45.76;35.47;62.90;;
66335;Laerm;53138;51.496;6.410;2023-03-14T00:40:48;40.48;35.42;55.06;;
66335;Laerm;53138;51.496;6.410;2023-03-14T00:40:59;41.63;36.04;57.48;;
66335;Laerm;53138;51.496;6.410;2023-03-14T00:41:10;39.07;35.30;50.13;;
66335;Laerm;53138;51.496;6.410;2023-03-14T00:41:21;38.67;35.67;50.49;;
66335;Laerm;53138;51.496;6.410;2023-03-14T00:41:32;39.52;35.08;54.31;;
66335;Laerm;53138;51.496;6.410;2023-03-14T00:41:42;40.33;33.88;56.75;;
66335;Laerm;53138;51.496;6.410;2023-03-14T00:41:53;37.28;34.70;40.00;;
66335;Laerm;53138;51.496;6.410;2023-03-14T00:42:03;36.13;34.45;39.24;;
66335;Laerm;53138;51.496;6.410;2023-03-14T00:42:13;37.33;33.97;53.67;;
66335;Laerm;53138;51.496;6.410;2023-03-14T00:42:23;39.19;34.19;53.62;;
66335;Laerm;53138;51.496;6.410;2023-03-14T00:42:34;43.61;35.47;61.37;;
66335;Laerm;53138;51.496;6.410;2023-03-14T00:42:44;39.14;35.99;50.24;;
66335;Laerm;53138;51.496;6.410;2023-03-14T00:42:54;40.13;36.02;54.93;;
66335;Laerm;53138;51.496;6.410;2023-03-14T00:43:05;44.28;37.19;64.50;;
66335;Laerm;53138;51.496;6.410;2023-03-14T00:43:15;39.02;36.79;44.23;;
66335;Laerm;53138;51.496;6.410;2023-03-14T00:43:25;41.66;36.07;55.34;;
66335;Laerm;53138;51.496;6.410;2023-03-14T00:43:35;40.25;36.28;55.25;;
66335;Laerm;53138;51.496;6.410;2023-03-14T00:43:45;39.31;36.96;50.12;;
66335;Laerm;53138;51.496;6.410;2023-03-14T00:43:56;40.02;36.62;44.29;;
66335;Laerm;53138;51.496;6.410;2023-03-14T00:44:06;41.36;39.29;45.26;;
66335;Laerm;53138;51.496;6.410;2023-03-14T00:44:16;43.65;39.53;50.98;;
66335;Laerm;53138;51.496;6.410;2023-03-14T00:44:26;41.32;37.76;52.28;;
66335;Laerm;53138;51.496;6.410;2023-03-14T00:44:37;40.53;36.10;55.95;;
66335;Laerm;53138;51.496;6.410;2023-03-14T00:44:47;39.95;34.73;58.88;;
66335;Laerm;53138;51.496;6.410;2023-03-14T00:44:57;36.93;34.29;47.43;;
66335;Laerm;53138;51.496;6.410;2023-03-14T00:45:08;36.21;34.37;38.76;;
66335;Laerm;53138;51.496;6.410;2023-03-14T00:45:18;36.19;34.12;44.36;;
66335;Laerm;53138;51.496;6.410;2023-03-14T00:45:28;37.09;34.58;43.82;;
66335;Laerm;53138;51.496;6.410;2023-03-14T00:45:39;37.93;35.13;41.33;;
66335;Laerm;53138;51.496;6.410;2023-03-14T00:45:49;38.59;35.57;46.57;;
66335;Laerm;53138;51.496;6.410;2023-03-14T00:45:59;41.16;36.58;49.00;;
66335;Laerm;53138;51.496;6.410;2023-03-14T00:46:10;38.40;34.66;42.05;;
66335;Laerm;53138;51.496;6.410;2023-03-14T00:46:20;36.57;33.48;41.03;;
66335;Laerm;53138;51.496;6.410;2023-03-14T00:46:30;37.27;34.29;40.93;;
66335;Laerm;53138;51.496;6.410;2023-03-14T00:46:40;36.99;35.13;40.53;;
66335;Laerm;53138;51.496;6.410;2023-03-14T00:46:51;38.38;34.83;53.26;;
66335;Laerm;53138;51.496;6.410;2023-03-14T00:47:01;43.28;36.59;59.02;;
66335;Laerm;53138;51.496;6.410;2023-03-14T00:47:11;42.42;36.03;58.06;;
66335;Laerm;53138;51.496;6.410;2023-03-14T00:47:21;43.46;35.97;59.25;;
66335;Laerm;53138;51.496;6.410;2023-03-14T00:47:32;43.62;35.86;62.70;;
66335;Laerm;53138;51.496;6.410;2023-03-14T00:47:42;42.28;36.16;56.10;;
66335;Laerm;53138;51.496;6.410;2023-03-14T00:47:55;37.85;34.70;44.91;;
66335;Laerm;53138;51.496;6.410;2023-03-14T00:48:05;37.98;34.86;47.14;;
66335;Laerm;53138;51.496;6.410;2023-03-14T00:48:16;40.85;34.21;55.07;;
66335;Laerm;53138;51.496;6.410;2023-03-14T00:48:26;39.24;35.25;54.97;;
66335;Laerm;53138;51.496;6.410;2023-03-14T00:48:36;38.48;34.30;56.42;;
66335;Laerm;53138;51.496;6.410;2023-03-14T00:48:47;36.42;33.55;50.19;;
66335;Laerm;53138;51.496;6.410;2023-03-14T00:48:57;36.25;33.73;48.72;;
66335;Laerm;53138;51.496;6.410;2023-03-14T00:49:08;36.59;33.89;39.22;;
66335;Laerm;53138;51.496;6.410;2023-03-14T00:49:18;39.32;34.38;55.51;;
66335;Laerm;53138;51.496;6.410;2023-03-14T00:49:28;39.17;33.92;56.49;;
66335;Laerm;53138;51.496;6.410;2023-03-14T00:49:38;36.57;34.35;45.88;;
66335;Laerm;53138;51.496;6.410;2023-03-14T00:49:48;39.27;35.28;52.77;;
66335;Laerm;53138;51.496;6.410;2023-03-14T00:49:58;39.00;35.75;49.91;;
66335;Laerm;53138;51.496;6.410;2023-03-14T00:50:09;40.33;36.05;50.87;;
66335;Laerm;53138;51.496;6.410;2023-03-14T00:50:19;41.62;35.03;56.39;;
66335;Laerm;53138;51.496;6.410;2023-03-14T00:50:30;40.31;35.45;57.22;;
66335;Laerm;53138;51.496;6.410;2023-03-14T00:50:40;43.56;37.55;54.21;;
66335;Laerm;53138;51.496;6.410;2023-03-14T00:50:50;40.63;35.33;56.56;;
66335;Laerm;53138;51.496;6.410;2023-03-14T00:51:01;40.29;34.91;56.83;;
66335;Laerm;53138;51.496;6.410;2023-03-14T00:51:11;36.58;33.29;49.57;;
66335;Laerm;53138;51.496;6.410;2023-03-14T00:51:23;38.94;33.70;55.06;;
66335;Laerm;53138;51.496;6.410;2023-03-14T00:51:34;35.37;33.08;38.21;;
66335;Laerm;53138;51.496;6.410;2023-03-14T00:51:44;35.57;33.26;40.07;;
66335;Laerm;53138;51.496;6.410;2023-03-14T00:51:54;35.99;33.96;44.64;;
66335;Laerm;53138;51.496;6.410;2023-03-14T00:52:04;35.51;33.22;48.25;;
66335;Laerm;53138;51.496;6.410;2023-03-14T00:52:14;35.15;32.47;39.02;;
66335;Laerm;53138;51.496;6.410;2023-03-14T00:52:25;35.29;32.98;40.49;;
66335;Laerm;53138;51.496;6.410;2023-03-14T00:52:35;35.32;33.45;40.85;;
66335;Laerm;53138;51.496;6.410;2023-03-14T00:52:45;35.68;32.91;46.33;;
66335;Laerm;53138;51.496;6.410;2023-03-14T00:52:58;34.75;32.37;37.17;;
66335;Laerm;53138;51.496;6.410;2023-03-14T00:53:08;37.13;34.55;44.49;;
66335;Laerm;53138;51.496;6.410;2023-03-14T00:53:19;36.31;33.94;43.82;;
66335;Laerm;53138;51.496;6.410;2023-03-14T00:53:29;37.30;33.21;49.92;;
66335;Laerm;53138;51.496;6.410;2023-03-14T00:53:39;36.00;33.40;44.02;;
66335;Laerm;53138;51.496;6.410;2023-03-14T00:53:49;37.62;33.64;53.94;;
66335;Laerm;53138;51.496;6.410;2023-03-14T00:54:00;37.55;34.12;47.43;;
66335;Laerm;53138;51.496;6.410;2023-03-14T00:54:10;40.00;34.98;57.67;;
66335;Laerm;53138;51.496;6.410;2023-03-14T00:54:21;42.24;35.31;57.61;;
66335;Laerm;53138;51.496;6.410;2023-03-14T00:54:31;46.42;37.60;63.30;;
66335;Laerm;53138;51.496;6.410;2023-03-14T00:54:41;47.23;39.66;63.98;;
66335;Laerm;53138;51.496;6.410;2023-03-14T00:54:52;46.26;39.14;62.63;;
66335;Laerm;53138;51.496;6.410;2023-03-14T00:55:02;44.24;40.65;55.64;;
66335;Laerm;53138;51.496;6.410;2023-03-14T00:55:12;48.26;41.56;66.22;;
66335;Laerm;53138;51.496;6.410;2023-03-14T00:55:23;43.64;38.45;59.68;;
66335;Laerm;53138;51.496;6.410;2023-03-14T00:55:36;43.83;38.60;57.19;;
66335;Laerm;53138;51.496;6.410;2023-03-14T00:55:46;39.83;36.45;56.83;;
66335;Laerm;53138;51.496;6.410;2023-03-14T00:55:56;40.57;36.53;54.47;;
66335;Laerm;53138;51.496;6.410;2023-03-14T00:56:08;39.98;35.47;55.18;;
66335;Laerm;53138;51.496;6.410;2023-03-14T00:56:19;40.40;34.87;54.24;;
66335;Laerm;53138;51.496;6.410;2023-03-14T00:56:30;40.20;35.44;55.99;;
66335;Laerm;53138;51.496;6.410;2023-03-14T00:56:40;38.41;35.79;49.74;;
66335;Laerm;53138;51.496;6.410;2023-03-14T00:56:50;40.90;36.18;55.95;;
66335;Laerm;53138;51.496;6.410;2023-03-14T00:57:00;42.77;36.85;58.32;;
66335;Laerm;53138;51.496;6.410;2023-03-14T00:57:11;40.19;36.60;51.64;;
66335;Laerm;53138;51.496;6.410;2023-03-14T00:57:21;44.67;37.42;61.00;;
66335;Laerm;53138;51.496;6.410;2023-03-14T00:57:31;44.94;39.06;58.66;;
66335;Laerm;53138;51.496;6.410;2023-03-14T00:57:41;44.64;41.11;54.75;;
66335;Laerm;53138;51.496;6.410;2023-03-14T00:57:51;46.99;42.19;58.38;;
66335;Laerm;53138;51.496;6.410;2023-03-14T00:58:02;47.94;38.79;63.40;;
66335;Laerm;53138;51.496;6.410;2023-03-14T00:58:13;40.77;37.80;54.04;;
66335;Laerm;53138;51.496;6.410;2023-03-14T00:58:23;41.51;37.50;56.61;;
66335;Laerm;53138;51.496;6.410;2023-03-14T00:58:33;42.05;37.33;56.41;;
66335;Laerm;53138;51.496;6.410;2023-03-14T00:58:44;41.60;37.49;59.44;;
66335;Laerm;53138;51.496;6.410;2023-03-14T00:58:54;40.37;36.18;50.36;;
66335;Laerm;53138;51.496;6.410;2023-03-14T00:59:05;39.26;35.75;51.47;;